createdAt,value
2018-04-30T00:02:05.521Z,6.87
2018-04-30T00:04:31.368Z,4.63
2018-04-30T00:06:57.204Z,7.77
2018-04-30T00:09:23.034Z,5.90
2018-04-30T00:11:48.870Z,6.70
2018-04-30T00:14:14.733Z,5.77
2018-04-30T00:16:40.569Z,5.73
2018-04-30T00:19:06.413Z,6.60
2018-04-30T00:21:32.267Z,7.63
2018-04-30T00:23:58.111Z,5.20
2018-04-30T00:26:23.971Z,5.10
2018-04-30T00:28:49.819Z,7.57
2018-04-30T00:31:15.671Z,6.13
2018-04-30T00:33:41.589Z,7.10
2018-04-30T00:36:07.400Z,4.57
2018-04-30T00:38:33.242Z,6.30
2018-04-30T00:40:59.061Z,5.30
2018-04-30T00:43:24.928Z,5.63
2018-04-30T00:45:50.776Z,4.93
2018-04-30T00:48:16.633Z,4.50
2018-04-30T00:50:42.482Z,4.67
2018-04-30T00:53:08.311Z,6.13
2018-04-30T00:55:34.137Z,4.80
2018-04-30T00:57:59.958Z,4.97
2018-04-30T01:00:25.819Z,4.97
2018-04-30T01:02:51.649Z,6.50
2018-04-30T01:05:17.520Z,5.47
2018-04-30T01:07:43.382Z,4.77
2018-04-30T01:10:09.257Z,8.03
2018-04-30T01:12:35.113Z,6.10
2018-04-30T01:15:00.939Z,5.77
2018-04-30T01:17:26.808Z,5.50
2018-04-30T01:19:52.669Z,5.83
2018-04-30T01:22:18.504Z,6.20
2018-04-30T01:24:44.380Z,5.30
2018-04-30T01:27:10.271Z,7.00
2018-04-30T01:29:36.132Z,6.57
2018-04-30T01:32:01.993Z,4.80
2018-04-30T01:34:27.841Z,6.33
2018-04-30T01:36:53.690Z,5.17
2018-04-30T01:39:19.533Z,8.30
2018-04-30T01:41:45.406Z,8.50
2018-04-30T01:44:11.286Z,8.43
2018-04-30T01:46:37.147Z,7.70
2018-04-30T01:49:03.015Z,8.57
2018-04-30T01:51:28.866Z,8.00
2018-04-30T01:53:54.747Z,9.17
2018-04-30T01:56:20.610Z,10.40
2018-04-30T01:58:46.484Z,9.60
2018-04-30T02:01:12.366Z,7.40
2018-04-30T02:03:38.226Z,7.50
2018-04-30T02:06:04.071Z,7.90
2018-04-30T02:08:29.914Z,8.43
2018-04-30T02:10:55.771Z,8.23
2018-04-30T02:13:21.636Z,6.87
2018-04-30T02:15:47.465Z,8.17
2018-04-30T02:18:13.324Z,9.13
2018-04-30T02:20:39.176Z,10.90
2018-04-30T02:23:05.013Z,11.37
2018-04-30T02:25:30.874Z,8.70
2018-04-30T02:27:56.717Z,7.33
2018-04-30T02:30:22.569Z,9.50
2018-04-30T02:32:48.444Z,6.50
2018-04-30T02:35:14.287Z,7.23
2018-04-30T02:37:40.164Z,8.03
2018-04-30T02:40:06.059Z,10.13
2018-04-30T02:42:31.894Z,7.93
2018-04-30T02:44:57.749Z,12.03
2018-04-30T02:47:23.601Z,7.53
2018-04-30T02:49:49.454Z,7.33
2018-04-30T02:52:15.318Z,12.10
2018-04-30T02:54:41.225Z,10.23
2018-04-30T02:57:07.087Z,9.77
2018-04-30T02:59:32.965Z,11.53
2018-04-30T03:01:58.798Z,10.13
2018-04-30T03:04:24.636Z,10.43
2018-04-30T03:06:50.490Z,10.20
2018-04-30T03:09:16.331Z,9.43
2018-04-30T03:11:42.191Z,10.53
2018-04-30T03:14:08.026Z,12.20
2018-04-30T03:16:33.871Z,9.80
2018-04-30T03:18:59.710Z,10.37
2018-04-30T03:21:25.555Z,9.53
2018-04-30T03:23:51.399Z,12.07
2018-04-30T03:26:17.254Z,10.57
2018-04-30T03:28:43.099Z,8.93
2018-04-30T03:31:08.975Z,10.43
2018-04-30T03:33:34.831Z,9.53
2018-04-30T03:36:00.676Z,10.27
2018-04-30T03:38:26.537Z,14.03
2018-04-30T03:40:52.376Z,12.60
2018-04-30T03:43:18.259Z,10.47
2018-04-30T03:45:44.081Z,9.90
2018-04-30T03:48:09.925Z,10.87
2018-04-30T03:50:35.782Z,11.03
2018-04-30T03:53:01.633Z,10.80
2018-04-30T03:55:27.492Z,10.43
2018-04-30T03:57:53.358Z,8.93
2018-04-30T04:00:31.818Z,10.70
2018-04-30T04:03:09.917Z,12.07
2018-04-30T04:08:34.807Z,9.80
2018-04-30T04:11:00.641Z,9.13
2018-04-30T04:13:27.555Z,9.97
2018-04-30T04:15:53.423Z,11.83
2018-04-30T04:18:19.272Z,9.73
2018-04-30T04:20:45.135Z,10.23
2018-04-30T04:23:10.993Z,12.23
2018-04-30T04:25:36.867Z,9.10
2018-04-30T04:28:02.735Z,11.83
2018-04-30T04:30:28.586Z,13.37
2018-04-30T04:32:54.429Z,11.47
2018-04-30T04:35:20.269Z,9.87
2018-04-30T04:37:46.114Z,10.33
2018-04-30T04:40:11.989Z,10.10
2018-04-30T04:42:37.826Z,12.37
2018-04-30T04:45:03.702Z,11.37
2018-04-30T04:47:29.580Z,11.50
2018-04-30T04:49:55.457Z,11.20
2018-04-30T04:52:21.298Z,10.53
2018-04-30T04:54:47.147Z,11.07
2018-04-30T04:57:12.999Z,11.23
2018-04-30T04:59:38.852Z,11.90
2018-04-30T05:02:04.708Z,12.37
2018-04-30T05:04:30.545Z,10.77
2018-04-30T05:06:56.411Z,11.13
2018-04-30T05:09:22.230Z,11.20
2018-04-30T05:11:48.077Z,13.27
2018-04-30T05:14:13.937Z,11.50
2018-04-30T05:16:39.792Z,12.67
2018-04-30T05:19:05.675Z,13.03
2018-04-30T05:21:31.512Z,12.73
2018-04-30T05:23:57.396Z,12.83
2018-04-30T05:26:23.236Z,11.23
2018-04-30T05:28:49.081Z,12.63
2018-04-30T05:31:14.928Z,13.53
2018-04-30T05:33:40.795Z,14.27
2018-04-30T05:36:06.639Z,13.03
2018-04-30T05:38:32.494Z,14.43
2018-04-30T05:40:58.359Z,17.27
2018-04-30T05:43:24.193Z,13.93
2018-04-30T05:45:50.057Z,14.20
2018-04-30T05:48:15.901Z,15.67
2018-04-30T05:50:41.737Z,15.50
2018-04-30T05:53:07.626Z,13.90
2018-04-30T05:55:33.493Z,14.07
2018-04-30T05:57:59.330Z,12.07
2018-04-30T06:00:25.748Z,13.27
2018-04-30T06:02:51.605Z,15.17
2018-04-30T06:05:17.457Z,15.73
2018-04-30T06:07:43.320Z,14.47
2018-04-30T06:10:09.179Z,14.03
2018-04-30T06:12:35.031Z,15.87
2018-04-30T06:15:00.885Z,12.10
2018-04-30T06:17:26.805Z,14.87
2018-04-30T06:19:52.587Z,13.37
2018-04-30T06:22:18.450Z,14.40
2018-04-30T06:24:44.307Z,12.27
2018-04-30T06:27:10.168Z,12.97
2018-04-30T06:29:36.006Z,13.93
2018-04-30T06:32:01.856Z,12.60
2018-04-30T06:34:27.692Z,16.27
2018-04-30T06:36:53.543Z,13.03
2018-04-30T06:39:19.410Z,13.40
2018-04-30T06:41:45.258Z,16.23
2018-04-30T06:44:11.111Z,14.07
2018-04-30T06:46:36.955Z,14.83
2018-04-30T06:49:02.841Z,14.93
2018-04-30T06:51:28.687Z,13.70
2018-04-30T06:53:54.549Z,12.43
2018-04-30T06:56:20.391Z,13.73
2018-04-30T06:58:46.256Z,13.87
2018-04-30T07:01:12.135Z,13.40
2018-04-30T07:03:37.999Z,14.37
2018-04-30T07:06:03.860Z,13.43
2018-04-30T07:08:29.715Z,13.73
2018-04-30T07:10:55.592Z,11.83
2018-04-30T07:13:21.460Z,13.23
2018-04-30T07:15:47.322Z,11.97
2018-04-30T07:18:13.172Z,13.73
2018-04-30T07:20:39.034Z,14.03
2018-04-30T07:23:04.894Z,11.93
2018-04-30T07:25:30.757Z,12.83
2018-04-30T07:27:56.643Z,11.97
2018-04-30T07:30:22.535Z,11.37
2018-04-30T07:32:48.423Z,12.30
2018-04-30T07:35:14.287Z,11.53
2018-04-30T07:37:40.145Z,9.67
2018-04-30T07:40:06.025Z,8.40
2018-04-30T07:42:31.886Z,11.07
2018-04-30T07:44:57.774Z,10.73
2018-04-30T07:47:23.630Z,7.40
2018-04-30T07:49:49.489Z,8.67
2018-04-30T07:52:15.345Z,11.70
2018-04-30T07:54:41.276Z,7.87
2018-04-30T07:57:07.168Z,6.93
2018-04-30T07:59:33.012Z,7.90
2018-04-30T08:01:58.854Z,6.60
2018-04-30T08:04:24.718Z,7.00
2018-04-30T08:06:50.616Z,6.50
2018-04-30T08:09:16.542Z,7.60
2018-04-30T08:11:42.466Z,7.93
2018-04-30T08:14:08.325Z,7.37
2018-04-30T08:16:35.139Z,7.30
2018-04-30T08:19:01.131Z,5.90
2018-04-30T08:21:27.038Z,6.23
2018-04-30T08:23:52.820Z,5.33
2018-04-30T08:26:18.657Z,4.37
2018-04-30T08:28:44.533Z,4.10
2018-04-30T08:31:10.492Z,4.90
2018-04-30T08:33:36.324Z,5.87
2018-04-30T08:36:02.184Z,5.10
2018-04-30T08:38:28.043Z,3.70
2018-04-30T08:40:53.883Z,3.00
2018-04-30T08:43:19.729Z,2.03
2018-04-30T08:45:45.604Z,2.93
2018-04-30T08:48:11.447Z,1.53
2018-04-30T08:50:37.304Z,1.50
2018-04-30T08:53:03.198Z,2.10
2018-04-30T08:55:29.059Z,2.20
2018-04-30T08:57:54.924Z,1.77
2018-04-30T09:00:20.821Z,1.30
2018-04-30T09:02:46.682Z,1.37
2018-04-30T09:05:12.534Z,2.33
2018-04-30T09:07:38.395Z,3.60
2018-04-30T09:10:04.219Z,1.80
2018-04-30T09:12:30.737Z,3.10
2018-04-30T09:14:56.570Z,1.67
2018-04-30T09:17:22.427Z,2.43
2018-04-30T09:19:48.274Z,1.47
2018-04-30T09:22:14.125Z,2.30
2018-04-30T09:24:39.990Z,1.50
2018-04-30T09:27:05.844Z,1.20
2018-04-30T09:29:31.704Z,1.40
2018-04-30T09:31:57.559Z,1.90
2018-04-30T09:34:23.419Z,3.57
2018-04-30T09:36:49.269Z,2.67
2018-04-30T09:39:15.098Z,2.60
2018-04-30T09:41:41.011Z,2.47
2018-04-30T09:44:06.850Z,2.10
2018-04-30T09:46:32.677Z,2.10
2018-04-30T09:48:58.769Z,3.40
2018-04-30T09:51:24.601Z,3.33
2018-04-30T09:53:50.441Z,2.73
2018-04-30T09:56:16.284Z,1.13
2018-04-30T09:58:42.122Z,2.37
2018-04-30T10:01:08.014Z,2.60
2018-04-30T10:03:33.887Z,3.13
2018-04-30T10:05:59.753Z,1.93
2018-04-30T10:08:25.603Z,2.60
2018-04-30T10:10:51.464Z,2.10
2018-04-30T10:13:17.386Z,2.63
2018-04-30T10:15:43.217Z,2.73
2018-04-30T10:18:09.089Z,1.70
2018-04-30T10:20:34.969Z,2.37
2018-04-30T10:23:00.935Z,1.60
2018-04-30T10:25:26.716Z,1.60
2018-04-30T10:27:52.573Z,3.60
2018-04-30T10:30:18.423Z,5.10
2018-04-30T10:32:44.287Z,6.20
2018-04-30T10:35:10.126Z,6.20
2018-04-30T10:37:36.126Z,1.03
2018-04-30T10:40:02.004Z,3.27
2018-04-30T10:42:27.867Z,1.47
2018-04-30T10:44:53.726Z,1.13
2018-04-30T10:47:19.584Z,2.90
2018-04-30T10:49:45.429Z,4.07
2018-04-30T10:52:11.293Z,1.43
2018-04-30T10:54:37.145Z,1.80
2018-04-30T10:57:03.015Z,2.07
2018-04-30T10:59:28.929Z,3.07
2018-04-30T11:01:54.805Z,2.03
2018-04-30T11:04:20.666Z,0.80
2018-04-30T11:06:46.518Z,2.63
2018-04-30T11:09:12.382Z,1.50
2018-04-30T11:11:38.314Z,1.20
2018-04-30T11:14:04.183Z,0.90
2018-04-30T11:16:30.074Z,1.70
2018-04-30T11:18:55.946Z,1.10
2018-04-30T11:21:21.827Z,2.00
2018-04-30T11:23:47.695Z,1.10
2018-04-30T11:26:13.542Z,1.63
2018-04-30T11:28:39.419Z,2.97
2018-04-30T11:31:05.312Z,2.60
2018-04-30T11:33:31.218Z,3.03
2018-04-30T11:35:57.070Z,1.70
2018-04-30T11:38:22.947Z,1.57
2018-04-30T11:40:48.806Z,1.20
2018-04-30T11:43:14.695Z,3.53
2018-04-30T11:45:40.573Z,2.47
2018-04-30T11:48:06.449Z,1.60
2018-04-30T11:50:32.329Z,2.10
2018-04-30T11:52:58.222Z,4.00
2018-04-30T11:55:24.099Z,3.60
2018-04-30T11:57:49.971Z,1.83
2018-04-30T12:00:15.871Z,1.60
2018-04-30T12:02:41.730Z,1.83
2018-04-30T12:05:07.581Z,2.83
2018-04-30T12:07:33.466Z,1.30
2018-04-30T12:09:59.314Z,1.53
2018-04-30T12:12:25.171Z,1.97
2018-04-30T12:14:51.017Z,1.60
2018-04-30T12:17:16.889Z,1.13
2018-04-30T12:19:42.746Z,2.17
2018-04-30T12:22:08.700Z,1.20
2018-04-30T12:24:34.491Z,1.53
2018-04-30T12:27:00.395Z,1.50
2018-04-30T12:29:26.265Z,1.23
2018-04-30T12:31:52.155Z,1.10
2018-04-30T12:34:18.321Z,1.47
2018-04-30T12:36:44.375Z,2.87
2018-04-30T12:39:10.227Z,1.47
2018-04-30T12:41:36.063Z,2.07
2018-04-30T12:44:02.009Z,1.60
2018-04-30T12:46:27.785Z,1.57
2018-04-30T12:48:53.675Z,1.50
2018-04-30T12:51:19.555Z,1.10
2018-04-30T12:53:45.428Z,1.20
2018-04-30T12:56:11.391Z,2.10
2018-04-30T12:58:37.242Z,1.53
2018-04-30T13:01:03.123Z,1.27
2018-04-30T13:03:29.005Z,2.53
2018-04-30T13:05:55.056Z,4.03
2018-04-30T13:08:20.905Z,1.07
2018-04-30T13:10:46.800Z,0.90
2018-04-30T13:13:12.654Z,1.27
2018-04-30T13:15:38.520Z,2.03
2018-04-30T13:18:04.365Z,1.23
2018-04-30T13:20:30.348Z,1.23
2018-04-30T13:22:56.208Z,1.00
2018-04-30T13:25:22.076Z,3.70
2018-04-30T13:27:47.971Z,1.87
2018-04-30T13:30:13.831Z,1.83
2018-04-30T13:32:39.675Z,1.10
2018-04-30T13:35:05.505Z,1.63
2018-04-30T13:37:31.690Z,1.10
2018-04-30T13:39:57.579Z,2.10
2018-04-30T13:42:23.404Z,1.33
2018-04-30T13:44:49.308Z,2.10
2018-04-30T13:47:15.174Z,2.63
2018-04-30T13:49:41.034Z,1.30
2018-04-30T13:52:06.928Z,0.77
2018-04-30T13:54:32.799Z,2.10
2018-04-30T13:56:58.668Z,1.20
2018-04-30T13:59:24.549Z,0.97
2018-04-30T14:01:50.569Z,1.13
2018-04-30T14:04:16.353Z,1.07
2018-04-30T14:06:42.216Z,0.77
2018-04-30T14:09:08.091Z,3.10
2018-04-30T14:11:33.946Z,1.60
2018-04-30T14:13:59.769Z,1.20
2018-04-30T14:16:26.452Z,2.40
2018-04-30T14:18:52.297Z,1.53
2018-04-30T14:21:18.163Z,2.20
2018-04-30T14:23:44.019Z,1.83
2018-04-30T14:26:09.867Z,2.93
2018-04-30T14:28:35.699Z,3.13
2018-04-30T14:31:01.555Z,0.87
2018-04-30T14:33:27.392Z,0.90
2018-04-30T14:35:53.260Z,1.00
2018-04-30T14:38:19.206Z,1.00
2018-04-30T14:40:45.004Z,1.40
2018-04-30T14:43:10.917Z,1.03
2018-04-30T14:45:36.757Z,1.87
2018-04-30T14:48:02.629Z,1.40
2018-04-30T14:50:28.503Z,1.63
2018-04-30T14:52:54.405Z,2.40
2018-04-30T14:55:20.274Z,1.17
2018-04-30T14:57:46.154Z,2.43
2018-04-30T15:00:12.057Z,1.63
2018-04-30T15:02:37.890Z,0.50
2018-04-30T15:05:03.869Z,3.70
2018-04-30T15:07:29.698Z,1.83
2018-04-30T15:09:55.550Z,2.00
2018-04-30T15:12:22.091Z,0.70
2018-04-30T15:14:48.001Z,1.37
2018-04-30T15:17:13.866Z,2.40
2018-04-30T15:19:39.762Z,1.63
2018-04-30T15:22:05.584Z,0.80
2018-04-30T15:24:31.447Z,0.70
2018-04-30T15:26:57.278Z,1.03
2018-04-30T15:29:23.149Z,1.17
2018-04-30T15:31:48.993Z,2.20
2018-04-30T15:34:14.875Z,1.47
2018-04-30T15:36:40.728Z,1.97
2018-04-30T15:39:06.596Z,3.10
2018-04-30T15:41:32.444Z,1.50
2018-04-30T15:43:58.304Z,1.50
2018-04-30T15:46:24.146Z,0.93
2018-04-30T15:48:50.039Z,1.27
2018-04-30T15:51:15.877Z,4.10
2018-04-30T15:53:41.759Z,0.70
2018-04-30T15:56:07.636Z,0.60
2018-04-30T15:58:33.486Z,2.47
2018-04-30T16:00:59.372Z,1.50
2018-04-30T16:03:25.229Z,1.73
2018-04-30T16:05:51.102Z,0.70
2018-04-30T16:08:16.956Z,1.20
2018-04-30T16:10:42.828Z,1.13
2018-04-30T16:13:08.763Z,1.67
2018-04-30T16:15:34.657Z,0.97
2018-04-30T16:18:00.507Z,1.77
2018-04-30T16:20:26.459Z,1.63
2018-04-30T16:22:52.263Z,0.97
2018-04-30T16:25:18.090Z,0.67
2018-04-30T16:27:43.972Z,1.80
2018-04-30T16:30:10.903Z,2.13
2018-04-30T16:32:36.780Z,1.20
2018-04-30T16:35:02.663Z,4.60
2018-04-30T16:37:28.554Z,0.70
2018-04-30T16:39:54.450Z,0.70
2018-04-30T16:42:20.302Z,2.47
2018-04-30T16:44:46.165Z,0.93
2018-04-30T16:47:12.039Z,1.50
2018-04-30T16:49:37.907Z,1.67
2018-04-30T16:52:03.759Z,3.73
2018-04-30T16:54:29.612Z,4.33
2018-04-30T16:56:55.474Z,6.53
2018-04-30T16:59:21.374Z,1.57
2018-04-30T17:01:47.239Z,1.43
2018-04-30T17:04:13.082Z,1.33
2018-04-30T17:06:38.979Z,1.50
2018-04-30T17:09:04.892Z,3.83
2018-04-30T17:11:30.777Z,3.20
2018-04-30T17:13:56.619Z,2.87
2018-04-30T17:16:22.486Z,1.00
2018-04-30T17:18:48.339Z,2.07
2018-04-30T17:21:14.229Z,4.63
2018-04-30T17:23:40.100Z,2.10
2018-04-30T17:26:05.970Z,3.40
2018-04-30T17:28:31.819Z,2.00
2018-04-30T17:30:57.668Z,4.20
2018-04-30T17:33:23.556Z,3.10
2018-04-30T17:35:49.424Z,1.20
2018-04-30T17:38:15.322Z,1.80
2018-04-30T17:40:41.168Z,0.93
2018-04-30T17:43:07.028Z,2.10
2018-04-30T17:45:32.883Z,1.33
2018-04-30T17:47:58.742Z,2.67
2018-04-30T17:50:24.610Z,1.00
2018-04-30T17:52:50.466Z,1.73
2018-04-30T17:55:16.356Z,4.00
2018-04-30T17:57:42.214Z,1.10
2018-04-30T18:00:08.132Z,1.57
2018-04-30T18:02:34.001Z,1.47
2018-04-30T18:04:59.888Z,3.47
2018-04-30T18:07:25.797Z,3.60
2018-04-30T18:09:52.281Z,3.40
2018-04-30T18:12:18.149Z,5.47
2018-04-30T18:14:44.038Z,2.93
2018-04-30T18:17:09.930Z,3.80
2018-04-30T18:19:35.953Z,3.27
2018-04-30T18:22:01.853Z,3.53
2018-04-30T18:24:27.728Z,1.43
2018-04-30T18:26:53.632Z,3.47
2018-04-30T18:29:19.506Z,2.43
2018-04-30T18:31:45.385Z,1.30
2018-04-30T18:34:11.242Z,5.17
2018-04-30T18:36:38.123Z,2.87
2018-04-30T18:39:04.905Z,1.77
2018-04-30T18:41:30.746Z,1.43
2018-04-30T18:43:56.639Z,1.50
2018-04-30T18:46:22.509Z,6.10
2018-04-30T18:48:48.483Z,3.27
2018-04-30T18:51:14.349Z,2.07
2018-04-30T18:53:40.224Z,3.70
2018-04-30T18:56:06.167Z,1.70
2018-04-30T18:58:32.046Z,2.20
2018-04-30T19:00:58.253Z,2.00
2018-04-30T19:03:24.151Z,4.13
2018-04-30T19:05:50.036Z,2.90
2018-04-30T19:08:15.919Z,2.80
2018-04-30T19:10:41.939Z,2.17
2018-04-30T19:13:07.858Z,3.43
2018-04-30T19:15:33.724Z,1.20
2018-04-30T19:17:59.687Z,1.50
2018-04-30T19:20:25.525Z,2.67
2018-04-30T19:22:51.445Z,1.97
2018-04-30T19:25:17.300Z,1.87
2018-04-30T19:27:43.195Z,1.20
2018-04-30T19:30:10.075Z,1.93
2018-04-30T19:32:35.991Z,2.97
2018-04-30T19:35:01.878Z,1.60
2018-04-30T19:37:28.683Z,2.20
2018-04-30T19:39:54.636Z,1.93
2018-04-30T19:42:20.521Z,1.47
2018-04-30T19:44:46.456Z,3.50
2018-04-30T19:47:12.365Z,2.10
2018-04-30T19:49:39.229Z,1.90
2018-04-30T19:52:05.119Z,3.07
2018-04-30T19:54:30.993Z,2.33
2018-04-30T19:56:57.693Z,1.63
2018-04-30T19:59:24.267Z,3.43
2018-04-30T20:01:50.171Z,2.90
2018-04-30T20:04:16.053Z,3.60
2018-04-30T20:06:41.914Z,2.70
2018-04-30T20:09:07.890Z,3.30
2018-04-30T20:11:33.814Z,2.40
2018-04-30T20:13:59.713Z,3.57
2018-04-30T20:16:25.587Z,2.87
2018-04-30T20:18:51.511Z,2.27
2018-04-30T20:21:17.425Z,10.37
2018-04-30T20:23:43.906Z,2.50
2018-04-30T20:26:09.852Z,2.30
2018-04-30T20:28:35.755Z,5.17
2018-04-30T20:31:01.687Z,3.83
2018-04-30T20:33:27.678Z,2.20
2018-04-30T20:35:53.617Z,2.10
2018-04-30T20:38:19.481Z,4.83
2018-04-30T20:40:45.385Z,3.43
2018-04-30T20:43:11.282Z,3.17
2018-04-30T20:45:37.200Z,3.47
2018-04-30T20:48:03.244Z,2.80
2018-04-30T20:50:29.162Z,2.40
2018-04-30T20:52:55.021Z,3.00
2018-04-30T20:55:20.909Z,3.20
2018-04-30T20:57:46.769Z,3.07
2018-04-30T21:00:12.778Z,2.30
2018-04-30T21:02:38.643Z,2.30
2018-04-30T21:05:04.513Z,3.80
2018-04-30T21:07:30.424Z,4.93
2018-04-30T21:09:56.336Z,2.30
2018-04-30T21:12:22.214Z,2.70
2018-04-30T21:14:48.080Z,3.00
2018-04-30T21:17:13.991Z,2.73
2018-04-30T21:19:39.875Z,3.87
2018-04-30T21:22:05.761Z,3.10
2018-04-30T21:24:31.692Z,3.00
2018-04-30T21:26:57.494Z,3.20
2018-04-30T21:29:23.349Z,4.03
2018-04-30T21:31:49.227Z,4.33
2018-04-30T21:34:15.113Z,3.17
2018-04-30T21:36:40.991Z,2.90
2018-04-30T21:39:06.873Z,3.93
2018-04-30T21:41:32.727Z,4.43
2018-04-30T21:43:58.592Z,5.30
2018-04-30T21:46:24.425Z,6.67
2018-04-30T21:48:50.285Z,5.23
2018-04-30T21:51:16.131Z,6.07
2018-04-30T21:53:42.001Z,4.30
2018-04-30T21:56:07.871Z,4.03
2018-04-30T21:58:33.752Z,6.70
2018-04-30T22:00:59.679Z,3.70
2018-04-30T22:03:25.544Z,3.43
2018-04-30T22:05:51.408Z,3.43
2018-04-30T22:08:17.350Z,3.67
2018-04-30T22:10:43.187Z,2.40
2018-04-30T22:13:09.038Z,2.00
2018-04-30T22:15:34.912Z,5.53
2018-04-30T22:18:00.773Z,4.33
2018-04-30T22:20:26.677Z,3.00
2018-04-30T22:22:52.537Z,1.90
2018-04-30T22:25:18.388Z,2.87
2018-04-30T22:27:44.241Z,2.13
2018-04-30T22:30:10.121Z,2.37
2018-04-30T22:32:36.174Z,2.37
2018-04-30T22:35:02.020Z,1.53
2018-04-30T22:37:27.887Z,1.43
2018-04-30T22:39:53.755Z,1.27
2018-04-30T22:42:19.611Z,3.43
2018-04-30T22:44:45.444Z,3.43
2018-04-30T22:47:11.981Z,4.47
2018-04-30T22:49:37.833Z,3.23
2018-04-30T22:52:03.716Z,3.90
2018-04-30T22:54:29.560Z,1.50
2018-04-30T22:56:55.385Z,1.50
2018-04-30T22:59:21.239Z,2.40
2018-04-30T23:01:47.085Z,1.57
2018-04-30T23:04:12.960Z,1.27
2018-04-30T23:06:38.789Z,4.30
2018-04-30T23:09:04.661Z,1.37
2018-04-30T23:11:30.506Z,2.87
2018-04-30T23:13:56.351Z,3.43
2018-04-30T23:16:22.233Z,1.33
2018-04-30T23:18:48.079Z,1.40
2018-04-30T23:21:13.947Z,3.37
2018-04-30T23:23:39.789Z,2.10
2018-04-30T23:26:05.660Z,1.20
2018-04-30T23:28:31.520Z,1.53
2018-04-30T23:30:57.382Z,1.13
2018-04-30T23:33:23.235Z,2.10
2018-04-30T23:35:49.074Z,1.50
2018-04-30T23:38:14.940Z,3.83
2018-04-30T23:40:40.779Z,1.20
2018-04-30T23:43:06.637Z,3.70
2018-04-30T23:45:32.468Z,3.17
2018-04-30T23:47:58.330Z,1.23
2018-04-30T23:50:24.215Z,1.80
2018-04-30T23:52:50.075Z,1.13
2018-04-30T23:55:15.930Z,1.73
2018-04-30T23:57:41.786Z,1.47
